Time;durP1;ratioP1;P1;durP2;ratioP2;P2;SDS_P1;SDS_P2;PMS_P1;PMS_P2;Temp;Humidity;BMP_temperature;BMP_pressure;BME280_temperature;BME280_humidity;BME280_pressure;Samples;Min_cycle;Max_cycle;Signal;HPM_P1;HPM_P2
2022/09/25 00:00:42;;;;;;;29.33;20.05;;;12.90;99.90;;;;;;4904819;29;20055;-67
2022/09/25 00:03:09;;;;;;;32.13;23.33;;;12.90;99.90;;;;;;4931615;29;20627;-68
2022/09/25 00:05:37;;;;;;;31.50;21.95;;;12.90;99.90;;;;;;4913986;29;20059;-67
2022/09/25 00:08:03;;;;;;;28.90;21.10;;;12.90;99.90;;;;;;4930739;29;20055;-67
2022/09/25 00:10:29;;;;;;;30.63;22.05;;;12.80;99.90;;;;;;4928162;29;20429;-67
2022/09/25 00:12:55;;;;;;;30.63;20.98;;;12.90;99.90;;;;;;4951439;28;20126;-67
2022/09/25 00:15:21;;;;;;;29.80;21.50;;;12.90;99.90;;;;;;4930730;29;20429;-67
2022/09/25 00:17:47;;;;;;;29.38;21.73;;;12.80;99.90;;;;;;4947465;29;20058;-67
2022/09/25 00:20:14;;;;;;;29.55;21.13;;;12.80;99.90;;;;;;4945049;28;20043;-67
2022/09/25 00:22:41;;;;;;;28.27;19.73;;;12.80;99.90;;;;;;4912722;29;20130;-68
2022/09/25 00:25:10;;;;;;;28.60;20.58;;;12.70;99.90;;;;;;4931470;29;20066;-67
2022/09/25 00:27:36;;;;;;;31.08;21.13;;;12.80;99.90;;;;;;4946527;29;20421;-68
2022/09/25 00:30:03;;;;;;;31.25;21.33;;;12.70;99.90;;;;;;4912639;29;20518;-67
2022/09/25 00:32:29;;;;;;;28.93;21.07;;;12.80;99.90;;;;;;4942109;28;20600;-67
2022/09/25 00:34:55;;;;;;;29.20;22.17;;;12.70;99.90;;;;;;4927625;29;20058;-68
2022/09/25 00:37:21;;;;;;;32.17;22.58;;;12.70;99.90;;;;;;4946763;29;20042;-67
2022/09/25 00:39:47;;;;;;;27.60;20.70;;;12.80;99.90;;;;;;4941661;28;20048;-68
2022/09/25 00:42:13;;;;;;;28.17;20.02;;;12.80;99.90;;;;;;4946797;28;20114;-68
2022/09/25 00:44:57;;;;;;;26.55;19.85;;;12.80;99.90;;;;;;4929425;29;20055;-67
2022/09/25 00:47:37;;;;;;;29.15;21.05;;;12.80;99.90;;;;;;4945502;29;20413;-68
2022/09/25 00:50:05;;;;;;;31.25;20.58;;;12.80;99.90;;;;;;4946810;28;20077;-67
2022/09/25 00:52:30;;;;;;;26.38;19.95;;;12.80;99.90;;;;;;4913993;29;20131;-68
2022/09/25 00:54:59;;;;;;;31.33;21.35;;;12.70;99.90;;;;;;4935290;29;20491;-67
2022/09/25 00:57:28;;;;;;;26.00;20.10;;;12.70;99.90;;;;;;4931075;29;20043;-67
2022/09/25 00:59:58;;;;;;;26.63;20.00;;;12.80;99.90;;;;;;4929489;29;20070;-68
2022/09/25 01:02:29;;;;;;;29.35;19.83;;;12.80;99.90;;;;;;4930382;29;20171;-68
2022/09/25 01:04:56;;;;;;;31.05;22.05;;;12.80;99.90;;;;;;4929257;29;20122;-68
2022/09/25 01:07:23;;;;;;;26.00;18.70;;;12.80;99.90;;;;;;4929731;29;20547;-67
2022/09/25 01:09:49;;;;;;;29.35;20.48;;;12.80;99.90;;;;;;4931430;29;20043;-67
2022/09/25 01:12:16;;;;;;;28.80;20.50;;;12.70;99.90;;;;;;4930425;29;20043;-67
2022/09/25 01:14:42;;;;;;;28.25;20.33;;;12.80;99.90;;;;;;4945149;29;20051;-67
2022/09/25 01:17:20;;;;;;;27.63;20.77;;;12.70;99.90;;;;;;4946423;29;20400;-67
2022/09/25 01:19:52;;;;;;;30.98;20.35;;;12.70;99.90;;;;;;4928029;29;20126;-68
2022/09/25 01:22:52;;;;;;;31.25;21.20;;;12.70;99.90;;;;;;4943820;28;20044;-68
2022/09/25 01:25:36;;;;;;;28.17;21.00;;;12.80;99.90;;;;;;4941786;29;20047;-68
2022/09/25 01:28:39;;;;;;;32.08;22.85;;;12.70;99.90;;;;;;4945577;28;20058;-66
2022/09/25 01:31:14;;;;;;;27.25;20.38;;;12.80;99.90;;;;;;4945113;29;20043;-67
2022/09/25 01:33:45;;;;;;;27.58;19.73;;;12.80;99.90;;;;;;4914923;29;20536;-67
2022/09/25 01:36:34;;;;;;;29.85;20.00;;;12.80;99.90;;;;;;4928517;29;20532;-68
2022/09/25 01:39:10;;;;;;;27.73;20.52;;;12.80;99.90;;;;;;4945819;29;20687;-67
2022/09/25 01:41:50;;;;;;;27.73;20.48;;;12.80;99.90;;;;;;4930750;29;20137;-67
2022/09/25 01:44:27;;;;;;;26.27;19.55;;;12.80;99.90;;;;;;4929418;29;20055;-67
2022/09/25 01:46:55;;;;;;;27.83;19.83;;;12.90;99.90;;;;;;4930117;29;20047;-68
2022/09/25 01:49:26;;;;;;;25.33;19.50;;;12.90;99.90;;;;;;4945643;29;20582;-67
2022/09/25 01:51:53;;;;;;;28.77;20.85;;;12.90;99.90;;;;;;4944272;28;20051;-68
2022/09/25 01:54:39;;;;;;;28.17;19.55;;;12.90;99.90;;;;;;4931008;29;20059;-68
2022/09/25 01:57:37;;;;;;;31.00;22.35;;;12.90;99.90;;;;;;4946147;29;20114;-67
2022/09/25 02:00:13;;;;;;;25.80;19.35;;;12.90;99.90;;;;;;4930329;29;20059;-67
2022/09/25 02:02:48;;;;;;;26.80;19.23;;;12.90;99.90;;;;;;4943322;29;20061;-67
2022/09/25 02:05:48;;;;;;;26.40;19.60;;;12.90;99.90;;;;;;4945298;29;20776;-68
2022/09/25 02:08:44;;;;;;;28.20;20.70;;;12.90;99.90;;;;;;4933193;29;20091;-66
2022/09/25 02:11:11;;;;;;;28.60;20.25;;;12.80;99.90;;;;;;4923083;29;20106;-68
2022/09/25 02:13:40;;;;;;;26.48;19.38;;;12.90;99.90;;;;;;4914010;29;20051;-67
2022/09/25 02:16:09;;;;;;;26.65;20.75;;;12.90;99.90;;;;;;4909313;29;20075;-67
2022/09/25 02:21:46;;;;;;;28.25;20.25;;;12.90;99.90;;;;;;4945921;29;20054;-68
2022/09/25 02:24:26;;;;;;;30.98;21.92;;;12.90;99.90;;;;;;4941743;29;20051;-67
2022/09/25 02:26:52;;;;;;;30.20;21.17;;;13.00;99.90;;;;;;4945506;28;20051;-67
2022/09/25 02:29:18;;;;;;;28.88;21.35;;;12.90;99.90;;;;;;4919571;29;20457;-67
2022/09/25 02:31:49;;;;;;;26.55;20.13;;;12.90;99.90;;;;;;4926327;29;20043;-67
2022/09/25 02:34:14;;;;;;;28.08;20.23;;;12.90;99.90;;;;;;4929018;29;20078;-68
2022/09/25 02:36:41;;;;;;;24.73;18.73;;;12.90;99.90;;;;;;4910282;29;20079;-68
2022/09/25 02:39:07;;;;;;;28.52;20.98;;;12.90;99.90;;;;;;4945985;29;20043;-67
2022/09/25 02:41:42;;;;;;;26.95;18.88;;;12.90;99.90;;;;;;4928942;29;20077;-67
2022/09/25 02:44:30;;;;;;;27.35;20.92;;;12.90;99.90;;;;;;4948065;28;20054;-68
2022/09/25 02:46:59;;;;;;;25.15;18.85;;;13.00;99.90;;;;;;4946401;29;20078;-67
2022/09/25 02:49:34;;;;;;;;;;;13.00;99.90;;;;;;4946282;28;20057;-68
2022/09/25 02:52:10;;;;;;;25.52;19.55;;;13.00;99.90;;;;;;4949899;28;19960;-68
2022/09/25 02:54:45;;;;;;;26.70;20.65;;;13.00;99.90;;;;;;4947852;28;20491;-68
2022/09/25 02:57:31;;;;;;;24.63;19.63;;;13.00;99.90;;;;;;4933691;29;20046;-67
2022/09/25 02:59:59;;;;;;;28.85;21.05;;;13.00;99.90;;;;;;4946701;29;20210;-68
2022/09/25 03:02:26;;;;;;;28.92;20.95;;;13.00;99.90;;;;;;4946093;28;20373;-67
2022/09/25 03:04:52;;;;;;;27.10;22.05;;;13.00;99.90;;;;;;4930342;29;20044;-68
2022/09/25 03:07:17;;;;;;;25.02;20.63;;;13.00;99.90;;;;;;4948223;28;20062;-68
2022/09/25 03:09:45;;;;;;;25.40;19.98;;;13.00;99.90;;;;;;4948489;28;20039;-68
2022/09/25 03:12:11;;;;;;;24.90;19.40;;;13.00;99.90;;;;;;4964352;28;20054;-68
2022/09/25 03:14:37;;;;;;;25.05;20.20;;;13.10;99.90;;;;;;4929252;29;20048;-67
2022/09/25 03:17:03;;;;;;;28.60;21.70;;;13.10;99.90;;;;;;4932536;29;20388;-68
2022/09/25 03:19:30;;;;;;;28.98;21.63;;;13.10;99.90;;;;;;4927581;29;20058;-68
2022/09/25 03:21:56;;;;;;;24.10;19.83;;;13.00;99.90;;;;;;4948850;29;20147;-68
2022/09/25 03:24:23;;;;;;;30.05;22.83;;;13.00;99.90;;;;;;4929728;29;20059;-68
2022/09/25 03:26:49;;;;;;;27.15;21.73;;;13.00;99.90;;;;;;4931034;29;20047;-67
2022/09/25 03:29:16;;;;;;;27.88;22.67;;;13.00;99.90;;;;;;4948778;28;20556;-67
2022/09/25 03:31:42;;;;;;;25.60;21.38;;;12.90;99.90;;;;;;4932412;29;20440;-68
2022/09/25 03:34:08;;;;;;;28.15;21.77;;;12.90;99.90;;;;;;4947151;29;20051;-67
2022/09/25 03:36:35;;;;;;;28.85;22.33;;;13.00;99.90;;;;;;4912803;29;20054;-68
2022/09/25 03:39:02;;;;;;;28.65;22.20;;;13.00;99.90;;;;;;4905620;29;20043;-68
2022/09/25 03:41:32;;;;;;;30.50;23.55;;;12.90;99.90;;;;;;4913459;29;20048;-68
2022/09/25 03:43:59;;;;;;;29.20;22.65;;;13.00;99.90;;;;;;4930177;29;20444;-68
2022/09/25 03:46:26;;;;;;;30.03;22.03;;;12.90;99.90;;;;;;4928862;29;20075;-68
2022/09/25 03:48:53;;;;;;;28.05;21.63;;;12.90;99.90;;;;;;4930311;29;20372;-68
2022/09/25 03:51:20;;;;;;;27.83;20.98;;;12.90;99.90;;;;;;4914922;29;20545;-67
2022/09/25 03:53:49;;;;;;;27.00;20.65;;;12.90;99.90;;;;;;4944323;28;20138;-67
2022/09/25 03:56:22;;;;;;;22.02;19.00;;;12.90;99.90;;;;;;4948004;28;20548;-67
2022/09/25 03:58:48;;;;;;;24.02;19.05;;;12.90;99.90;;;;;;4928231;29;20055;-68
2022/09/25 04:01:17;;;;;;;28.25;21.13;;;12.90;99.90;;;;;;4945633;29;20375;-67
2022/09/25 04:03:46;;;;;;;24.40;19.63;;;12.90;99.90;;;;;;4932311;29;20050;-68
2022/09/25 04:06:14;;;;;;;28.73;21.30;;;12.90;99.90;;;;;;4947456;29;20436;-68
2022/09/25 04:08:41;;;;;;;26.30;20.85;;;12.80;99.90;;;;;;4931710;29;20051;-68
2022/09/25 04:11:06;;;;;;;26.55;19.80;;;12.80;99.90;;;;;;4915576;29;20078;-67
2022/09/25 04:13:40;;;;;;;24.23;18.30;;;12.80;99.90;;;;;;4927542;29;20110;-68
2022/09/25 04:16:20;;;;;;;23.52;17.42;;;12.70;99.90;;;;;;4939782;29;20105;-67
2022/09/25 04:18:47;;;;;;;22.83;17.65;;;12.70;99.90;;;;;;4927633;29;20060;-68
2022/09/25 04:21:15;;;;;;;27.20;18.05;;;12.80;99.90;;;;;;4915281;29;20083;-67
2022/09/25 04:23:41;;;;;;;25.23;18.38;;;12.70;99.90;;;;;;4950203;28;20047;-67
2022/09/25 04:26:07;;;;;;;23.48;18.45;;;12.70;99.90;;;;;;4931278;29;20054;-67
2022/09/25 04:28:34;;;;;;;32.25;19.33;;;12.60;99.90;;;;;;4947589;29;20047;-68
2022/09/25 04:31:02;;;;;;;25.83;18.00;;;12.60;99.90;;;;;;4948944;28;20130;-66
2022/09/25 04:33:46;;;;;;;22.27;16.10;;;12.60;99.90;;;;;;4932796;29;20050;-69
2022/09/25 04:36:12;;;;;;;23.45;16.95;;;12.60;99.90;;;;;;4951523;28;20747;-68
2022/09/25 04:38:38;;;;;;;31.10;18.25;;;12.50;99.90;;;;;;4945898;28;20556;-67
2022/09/25 04:41:07;;;;;;;26.92;17.77;;;12.60;99.90;;;;;;4950374;28;20055;-67
2022/09/25 04:43:33;;;;;;;24.88;16.70;;;12.50;99.90;;;;;;4915684;29;20086;-68
2022/09/25 04:46:04;;;;;;;27.63;17.55;;;12.50;99.90;;;;;;4930665;29;20051;-68
2022/09/25 04:48:30;;;;;;;28.40;18.25;;;12.50;99.90;;;;;;4950030;29;20051;-67
2022/09/25 04:50:57;;;;;;;26.77;17.60;;;12.50;99.90;;;;;;4915421;29;20052;-67
2022/09/25 04:53:28;;;;;;;31.10;19.60;;;12.50;99.90;;;;;;4914814;29;20055;-67
2022/09/25 04:56:06;;;;;;;26.35;17.98;;;12.50;99.90;;;;;;4934196;29;20488;-67
2022/09/25 04:58:32;;;;;;;31.75;19.90;;;12.50;99.90;;;;;;4918514;29;20063;-67
2022/09/25 05:01:07;;;;;;;33.60;21.60;;;12.50;99.90;;;;;;4934047;29;20484;-67
2022/09/25 05:03:33;;;;;;;40.20;23.38;;;12.50;99.90;;;;;;4916759;29;20075;-68
2022/09/25 05:05:59;;;;;;;40.58;24.05;;;12.50;99.90;;;;;;4917699;29;20097;-68
2022/09/25 05:08:25;;;;;;;42.55;24.75;;;12.40;99.90;;;;;;4948126;29;20058;-68
2022/09/25 05:10:51;;;;;;;44.88;24.65;;;12.40;99.90;;;;;;4931789;28;20114;-67
2022/09/25 05:13:17;;;;;;;38.05;23.40;;;12.40;99.90;;;;;;4949638;29;20047;-68
2022/09/25 05:15:43;;;;;;;47.75;27.30;;;12.40;99.90;;;;;;4932926;29;20058;-68
2022/09/25 05:18:14;;;;;;;47.17;27.33;;;12.50;99.90;;;;;;4934228;29;20126;-68
2022/09/25 05:20:40;;;;;;;50.05;26.88;;;12.40;99.90;;;;;;4932769;29;20039;-68
2022/09/25 05:23:06;;;;;;;47.55;27.42;;;12.50;99.90;;;;;;4915683;29;20074;-68
2022/09/25 05:25:31;;;;;;;55.05;31.33;;;12.50;99.90;;;;;;4933822;29;20125;-69
2022/09/25 05:27:58;;;;;;;55.50;31.55;;;12.40;99.90;;;;;;4932299;29;20138;-68
2022/09/25 05:30:24;;;;;;;54.58;30.65;;;12.40;99.90;;;;;;4948469;29;20043;-69
2022/09/25 05:32:50;;;;;;;58.90;30.67;;;12.40;99.90;;;;;;4917478;29;20048;-68
2022/09/25 05:35:20;;;;;;;54.05;30.60;;;12.40;99.90;;;;;;4900921;29;20055;-68
2022/09/25 05:37:46;;;;;;;65.55;33.83;;;12.40;99.90;;;;;;4930744;29;20047;-68
2022/09/25 05:40:14;;;;;;;66.80;33.97;;;12.40;99.90;;;;;;4934655;29;20054;-67
2022/09/25 05:42:42;;;;;;;54.25;31.83;;;12.40;99.90;;;;;;4929012;29;20050;-68
2022/09/25 05:45:09;;;;;;;63.92;36.40;;;12.40;99.90;;;;;;4949060;29;20125;-68
2022/09/25 05:47:37;;;;;;;67.43;34.72;;;12.40;99.90;;;;;;4933275;29;20051;-68
2022/09/25 05:50:03;;;;;;;66.65;35.50;;;12.40;99.90;;;;;;4933206;29;20050;-69
2022/09/25 05:52:30;;;;;;;65.93;34.53;;;12.40;99.90;;;;;;4947736;29;20047;-68
2022/09/25 05:54:55;;;;;;;69.82;36.17;;;12.40;99.90;;;;;;4933067;29;20098;-68
2022/09/25 05:57:22;;;;;;;70.63;35.97;;;12.40;99.90;;;;;;4949827;29;20086;-68
2022/09/25 05:59:48;;;;;;;65.95;35.30;;;12.40;99.90;;;;;;4949212;29;20137;-68
2022/09/25 06:02:16;;;;;;;69.18;35.67;;;12.40;99.90;;;;;;4899728;29;20110;-68
2022/09/25 06:04:42;;;;;;;78.85;37.28;;;12.50;99.90;;;;;;4913850;29;20055;-67
2022/09/25 06:07:08;;;;;;;84.28;39.47;;;12.50;99.90;;;;;;4931228;29;20560;-68
2022/09/25 06:09:35;;;;;;;78.50;39.35;;;12.50;99.90;;;;;;4932509;29;20055;-68
2022/09/25 06:12:02;;;;;;;77.68;38.05;;;12.40;99.90;;;;;;4949051;28;20058;-68
2022/09/25 06:14:27;;;;;;;69.03;36.95;;;12.40;99.90;;;;;;4932258;29;20047;-68
2022/09/25 06:16:53;;;;;;;64.88;36.97;;;12.40;99.90;;;;;;4915083;29;20054;-67
2022/09/25 06:19:19;;;;;;;71.47;36.13;;;12.40;99.90;;;;;;4951282;28;20051;-68
2022/09/25 06:21:46;;;;;;;68.50;36.55;;;12.40;99.90;;;;;;4951673;29;20047;-68
2022/09/25 06:24:12;;;;;;;64.70;34.72;;;12.40;99.90;;;;;;4950189;29;20362;-67
2022/09/25 06:26:38;;;;;;;69.25;37.20;;;12.50;99.90;;;;;;4953386;29;20054;-67
2022/09/25 06:29:06;;;;;;;71.18;37.38;;;12.50;99.90;;;;;;4935847;29;20239;-67
2022/09/25 06:31:33;;;;;;;64.75;37.20;;;12.50;99.90;;;;;;4952360;28;20412;-67
2022/09/25 06:33:59;;;;;;;67.65;36.47;;;12.50;99.90;;;;;;4936723;29;20578;-67
2022/09/25 06:36:25;;;;;;;66.15;36.10;;;12.50;99.90;;;;;;4952650;28;20058;-67
2022/09/25 06:38:54;;;;;;;73.30;39.38;;;12.50;99.90;;;;;;4953353;28;20047;-67
2022/09/25 06:41:20;;;;;;;87.40;41.17;;;12.50;99.90;;;;;;4951092;29;20058;-67
2022/09/25 06:43:50;;;;;;;81.85;41.50;;;12.40;99.90;;;;;;4952379;29;20062;-67
2022/09/25 06:46:17;;;;;;;70.18;37.83;;;12.50;99.90;;;;;;4936634;29;20433;-67
2022/09/25 06:48:43;;;;;;;71.97;36.72;;;12.40;99.90;;;;;;4918379;29;20078;-68
2022/09/25 06:51:09;;;;;;;75.22;39.88;;;12.40;99.90;;;;;;4952635;28;20138;-67
2022/09/25 06:53:35;;;;;;;68.30;37.42;;;12.50;99.90;;;;;;4953040;29;20047;-67
2022/09/25 06:56:01;;;;;;;68.32;37.63;;;12.50;99.90;;;;;;4953467;29;20488;-66
2022/09/25 06:58:27;;;;;;;69.53;35.75;;;12.50;99.90;;;;;;4935375;29;20063;-67
2022/09/25 07:00:54;;;;;;;53.13;30.77;;;12.40;99.90;;;;;;4931935;29;20046;-68
2022/09/25 07:06:05;;;;;;;33.35;22.75;;;12.40;99.90;;;;;;4936660;29;20480;-68
2022/09/25 07:08:31;;;;;;;37.47;24.02;;;12.50;99.90;;;;;;4947028;29;20381;-67
2022/09/25 07:10:57;;;;;;;33.45;22.25;;;12.50;99.90;;;;;;4949621;29;20048;-68
2022/09/25 07:13:28;;;;;;;34.65;22.73;;;12.50;99.90;;;;;;4920288;29;20138;-68
2022/09/25 07:15:58;;;;;;;30.85;21.83;;;12.50;99.90;;;;;;4902870;29;20492;-68
2022/09/25 07:18:24;;;;;;;30.40;20.73;;;12.50;99.90;;;;;;4950103;29;20118;-68
2022/09/25 07:20:51;;;;;;;31.05;20.50;;;12.50;99.90;;;;;;4920349;29;20377;-67
2022/09/25 07:23:17;;;;;;;28.08;19.40;;;12.50;99.90;;;;;;4919557;29;20081;-67
2022/09/25 07:25:44;;;;;;;28.70;20.05;;;12.50;99.90;;;;;;4935858;29;20062;-67
2022/09/25 07:28:13;;;;;;;27.77;18.75;;;12.50;99.90;;;;;;4935236;29;20068;-67
2022/09/25 07:30:42;;;;;;;30.65;19.88;;;12.60;99.90;;;;;;4934736;29;20050;-67
2022/09/25 07:33:08;;;;;;;38.38;21.98;;;12.50;99.90;;;;;;4908701;29;20055;-67
2022/09/25 07:35:34;;;;;;;29.55;19.10;;;12.40;99.90;;;;;;4920087;29;20047;-67
2022/09/25 07:38:00;;;;;;;31.92;19.05;;;12.40;99.90;;;;;;4952079;28;20079;-68
2022/09/25 07:40:27;;;;;;;29.85;18.33;;;12.40;99.90;;;;;;4899584;29;20043;-67
2022/09/25 07:43:06;;;;;;;27.50;16.83;;;12.50;99.90;;;;;;4950194;28;20173;-67
2022/09/25 07:45:31;;;;;;;;;;;12.50;99.90;;;;;;4951814;29;20092;-68
2022/09/25 07:48:01;;;;;;;28.17;17.73;;;12.50;99.90;;;;;;4951189;28;19914;-68
2022/09/25 07:50:28;;;;;;;27.50;18.65;;;12.50;99.90;;;;;;4950093;29;20450;-64
2022/09/25 07:52:55;;;;;;;29.10;18.63;;;12.50;99.90;;;;;;4935103;29;20167;-64
2022/09/25 07:55:22;;;;;;;29.02;19.15;;;12.60;99.90;;;;;;4920056;29;20141;-64
2022/09/25 07:57:49;;;;;;;24.30;16.48;;;12.60;99.90;;;;;;4948583;28;20048;-64
2022/09/25 08:00:15;;;;;;;26.73;18.10;;;12.60;99.90;;;;;;4953382;28;20066;-64
2022/09/25 08:02:41;;;;;;;23.02;16.20;;;12.60;99.90;;;;;;4951727;28;20455;-64
2022/09/25 08:05:08;;;;;;;25.63;18.23;;;12.70;99.90;;;;;;4948717;28;20043;-64
2022/09/25 08:07:34;;;;;;;25.85;17.83;;;12.70;99.90;;;;;;4944826;29;20047;-64
2022/09/25 08:09:59;;;;;;;32.58;17.60;;;12.70;99.90;;;;;;4949465;28;20125;-64
2022/09/25 08:12:25;;;;;;;27.13;17.45;;;12.70;99.90;;;;;;4919176;29;20183;-64
2022/09/25 08:14:51;;;;;;;23.77;15.98;;;12.80;99.90;;;;;;4934769;29;20373;-65
2022/09/25 08:17:18;;;;;;;23.55;16.02;;;12.80;99.90;;;;;;4949140;29;20051;-64
2022/09/25 08:19:47;;;;;;;22.73;15.80;;;12.70;99.90;;;;;;4950804;28;20567;-65
2022/09/25 08:22:13;;;;;;;22.95;14.50;;;12.80;99.90;;;;;;4935374;29;20109;-64
2022/09/25 08:24:38;;;;;;;21.38;13.70;;;12.80;99.90;;;;;;4933874;29;20063;-64
2022/09/25 08:27:06;;;;;;;22.20;13.40;;;12.90;99.90;;;;;;4933397;29;20066;-64
2022/09/25 08:29:32;;;;;;;20.40;14.85;;;12.90;99.90;;;;;;4934759;29;20077;-65
2022/09/25 08:31:58;;;;;;;18.05;12.90;;;12.90;99.90;;;;;;4946939;28;20055;-64
2022/09/25 08:34:24;;;;;;;20.33;13.02;;;12.90;99.90;;;;;;4916411;29;20054;-64
2022/09/25 08:36:50;;;;;;;17.10;11.65;;;12.90;99.90;;;;;;4915563;29;20122;-64
2022/09/25 08:39:17;;;;;;;23.33;12.38;;;12.90;99.90;;;;;;4947321;28;20051;-64
2022/09/25 08:41:52;;;;;;;19.15;11.15;;;12.90;99.90;;;;;;4918251;29;20047;-63
2022/09/25 08:44:29;;;;;;;18.77;11.05;;;12.90;99.90;;;;;;4914508;29;20043;-65
2022/09/25 08:50:13;;;;;;;15.50;11.02;;;12.90;99.90;;;;;;4948176;29;20536;-65
2022/09/25 08:52:40;;;;;;;17.60;12.00;;;12.80;99.90;;;;;;4919768;29;20051;-66
2022/09/25 08:58:41;;;;;;;15.70;11.02;;;12.70;99.90;;;;;;4872402;29;20070;-65
2022/09/25 09:01:30;;;;;;;19.95;11.60;;;12.70;99.90;;;;;;4920328;28;20162;-64
2022/09/25 09:04:22;;;;;;;17.95;12.20;;;12.70;99.90;;;;;;4940668;29;20086;-64
2022/09/25 09:06:49;;;;;;;19.52;12.57;;;12.70;99.90;;;;;;4922935;29;20046;-65
2022/09/25 09:09:23;;;;;;;21.85;12.32;;;12.70;99.90;;;;;;4934526;29;20074;-64
2022/09/25 09:12:02;;;;;;;20.42;12.77;;;12.80;99.90;;;;;;4928461;29;20058;-64
2022/09/25 09:14:29;;;;;;;21.98;14.25;;;12.70;99.90;;;;;;4981288;28;20162;-64
2022/09/25 09:16:59;;;;;;;17.65;12.93;;;12.70;99.90;;;;;;4916857;29;20479;-65
2022/09/25 09:19:25;;;;;;;21.02;12.93;;;12.60;99.90;;;;;;4917650;29;20050;-64
2022/09/25 09:22:04;;;;;;;19.13;12.35;;;12.60;99.90;;;;;;4916280;29;20540;-65
2022/09/25 09:24:42;;;;;;;20.98;12.88;;;12.60;99.90;;;;;;4950422;29;20158;-65
2022/09/25 09:27:16;;;;;;;20.90;13.55;;;12.60;99.90;;;;;;4950285;28;20372;-64
2022/09/25 09:30:00;;;;;;;23.45;14.75;;;12.60;99.90;;;;;;4948980;29;20170;-64
2022/09/25 09:32:33;;;;;;;24.45;13.57;;;12.70;99.90;;;;;;4949062;29;20042;-64
2022/09/25 09:35:31;;;;;;;22.05;13.93;;;12.70;99.90;;;;;;4949399;28;20153;-64
2022/09/25 09:38:13;;;;;;;19.90;13.93;;;12.70;99.90;;;;;;4936019;29;20047;-64
2022/09/25 09:40:54;;;;;;;19.67;13.18;;;12.70;99.90;;;;;;4916298;29;20046;-65
2022/09/25 09:43:35;;;;;;;21.75;13.15;;;12.70;99.90;;;;;;4950015;28;20051;-65
2022/09/25 09:46:14;;;;;;;24.55;14.55;;;12.80;99.90;;;;;;4913832;29;20044;-65
2022/09/25 09:48:58;;;;;;;22.23;13.52;;;12.80;99.90;;;;;;4948297;28;20097;-65
2022/09/25 09:51:56;;;;;;;22.17;14.27;;;12.80;99.90;;;;;;4949512;28;20062;-64
2022/09/25 09:54:36;;;;;;;23.27;14.43;;;12.90;99.90;;;;;;4937668;29;20496;-65
2022/09/25 09:57:04;;;;;;;21.42;12.88;;;12.90;99.90;;;;;;4937127;29;20563;-64
2022/09/25 09:59:39;;;;;;;21.88;13.85;;;12.80;99.90;;;;;;4921675;29;20063;-64
2022/09/25 10:02:36;;;;;;;19.98;13.07;;;12.80;99.90;;;;;;4938186;29;20476;-65
2022/09/25 10:05:05;;;;;;;18.88;12.35;;;12.80;99.90;;;;;;4912370;29;20389;-65
2022/09/25 10:07:32;;;;;;;18.52;10.65;;;12.80;99.90;;;;;;4921496;29;20726;-64
2022/09/25 10:09:59;;;;;;;15.98;10.02;;;12.90;99.90;;;;;;4936349;29;20058;-65
2022/09/25 10:12:32;;;;;;;18.52;10.95;;;13.00;99.90;;;;;;4918204;29;20355;-69
2022/09/25 10:15:00;;;;;;;15.38;9.35;;;12.90;99.90;;;;;;4920748;29;20047;-71
2022/09/25 10:17:27;;;;;;;15.52;9.85;;;13.00;99.90;;;;;;4937488;29;20039;-69
2022/09/25 10:20:00;;;;;;;14.77;9.57;;;13.00;99.90;;;;;;4936116;29;20127;-70
2022/09/25 10:22:27;;;;;;;12.70;8.15;;;13.10;99.90;;;;;;4938902;29;20043;-69
2022/09/25 10:25:03;;;;;;;12.20;7.75;;;13.10;99.90;;;;;;4921903;29;20085;-63
2022/09/25 10:27:30;;;;;;;11.02;7.90;;;13.20;99.90;;;;;;4933677;29;20096;-65
2022/09/25 10:30:05;;;;;;;12.32;8.38;;;13.20;99.90;;;;;;4947215;29;20054;-64
2022/09/25 10:32:59;;;;;;;16.50;9.32;;;13.20;99.90;;;;;;4951179;28;20051;-63
2022/09/25 10:35:37;;;;;;;15.27;8.73;;;13.20;99.90;;;;;;4933527;29;20544;-65
2022/09/25 10:38:05;;;;;;;11.23;8.70;;;13.20;99.90;;;;;;4951236;28;20536;-64
2022/09/25 10:40:37;;;;;;;17.10;9.00;;;13.20;99.90;;;;;;4919989;29;20047;-64
2022/09/25 10:43:15;;;;;;;16.27;10.68;;;13.20;99.90;;;;;;4917116;29;20441;-64
2022/09/25 10:45:41;;;;;;;;;;;13.30;99.90;;;;;;4949182;29;20051;-64
2022/09/25 10:51:18;;;;;;;21.40;15.52;;;13.30;99.90;;;;;;4937809;29;20086;-65
2022/09/25 10:53:45;;;;;;;25.98;15.52;;;13.40;99.90;;;;;;4934644;29;20055;-64
2022/09/25 10:56:20;;;;;;;21.13;15.68;;;13.40;99.90;;;;;;4934466;29;20062;-65
2022/09/25 10:59:00;;;;;;;24.73;15.82;;;13.30;99.90;;;;;;4918689;28;20059;-63
2022/09/25 11:01:37;;;;;;;22.88;17.08;;;13.30;99.90;;;;;;4945592;29;20043;-63
2022/09/25 11:04:24;;;;;;;20.63;15.55;;;13.40;99.90;;;;;;4917454;29;20051;-64
2022/09/25 11:06:56;;;;;;;21.38;14.02;;;13.50;99.90;;;;;;4949400;29;20043;-64
2022/09/25 11:09:28;;;;;;;16.88;12.50;;;13.80;99.90;;;;;;4951982;29;20047;-64
2022/09/25 11:12:12;;;;;;;14.73;10.55;;;13.80;99.90;;;;;;4936183;29;20055;-65
2022/09/25 11:14:45;;;;;;;15.90;9.90;;;13.80;99.90;;;;;;4927524;29;20105;-64
2022/09/25 11:17:39;;;;;;;19.92;11.57;;;13.70;99.90;;;;;;4935537;29;20075;-65
2022/09/25 11:20:17;;;;;;;26.15;13.27;;;13.70;99.90;;;;;;4934812;29;20054;-63
2022/09/25 11:23:23;;;;;;;22.75;13.95;;;13.70;99.90;;;;;;4952519;29;20466;-65
2022/09/25 11:26:09;;;;;;;20.35;13.75;;;13.60;99.90;;;;;;4950338;29;20047;-64
2022/09/25 11:28:56;;;;;;;17.45;13.32;;;13.50;99.90;;;;;;4951189;28;20043;-64
2022/09/25 11:31:36;;;;;;;20.35;12.85;;;13.50;99.90;;;;;;4935875;29;20039;-63
2022/09/25 11:34:28;;;;;;;22.08;12.88;;;13.40;99.90;;;;;;4935678;29;20493;-64
2022/09/25 11:37:04;;;;;;;19.63;14.38;;;13.30;99.90;;;;;;4948472;28;20533;-64
2022/09/25 11:42:42;;;;;;;19.15;13.40;;;13.40;99.90;;;;;;4932453;29;20051;-64
2022/09/25 11:45:35;;;;;;;21.10;13.03;;;13.30;99.90;;;;;;4948084;28;20055;-63
2022/09/25 11:48:39;;;;;;;14.65;11.95;;;13.40;99.90;;;;;;4936077;29;20290;-64
2022/09/25 11:51:42;;;;;;;18.15;11.00;;;13.40;99.90;;;;;;4931112;29;20043;-63
2022/09/25 11:54:27;;;;;;;19.85;11.85;;;13.40;99.90;;;;;;4934717;28;20058;-65
2022/09/25 11:56:56;;;;;;;13.38;10.55;;;13.40;99.90;;;;;;4947011;29;20102;-64
2022/09/25 11:59:56;;;;;;;15.02;12.52;;;13.40;99.90;;;;;;4920006;29;20067;-64
2022/09/25 12:02:50;;;;;;;19.55;12.32;;;13.30;99.90;;;;;;4951178;28;20039;-64
2022/09/25 12:05:37;;;;;;;17.40;13.20;;;13.30;99.90;;;;;;4951360;29;20122;-65
2022/09/25 12:08:14;;;;;;;20.43;13.03;;;13.20;99.90;;;;;;4935551;29;20047;-64
2022/09/25 12:11:06;;;;;;;16.42;12.45;;;13.30;99.90;;;;;;4932126;29;20075;-65
2022/09/25 12:13:44;;;;;;;17.45;12.68;;;13.30;99.90;;;;;;4946477;29;20194;-64
2022/09/25 12:16:17;;;;;;;19.73;12.05;;;13.30;99.90;;;;;;4950796;28;20043;-64
2022/09/25 12:18:48;;;;;;;18.92;10.93;;;13.30;99.90;;;;;;4934334;29;20180;-64
2022/09/25 12:21:47;;;;;;;18.42;10.50;;;13.30;99.90;;;;;;4946875;28;20053;-65
2022/09/25 12:24:30;;;;;;;15.60;9.43;;;13.40;99.90;;;;;;4930203;29;20055;-64
2022/09/25 12:27:03;;;;;;;11.05;8.13;;;13.50;99.90;;;;;;4929753;29;20051;-64
2022/09/25 12:29:48;;;;;;;11.73;8.43;;;13.50;99.90;;;;;;4933816;29;20046;-64
2022/09/25 12:32:15;;;;;;;11.63;7.63;;;13.60;99.90;;;;;;4932919;29;20129;-65
2022/09/25 12:35:04;;;;;;;11.95;7.43;;;13.50;99.90;;;;;;4949488;28;20186;-64
2022/09/25 12:37:42;;;;;;;12.13;6.80;;;13.60;99.90;;;;;;4950042;28;20047;-64
2022/09/25 12:40:27;;;;;;;10.77;7.05;;;13.60;99.90;;;;;;4926681;29;20075;-64
2022/09/25 12:42:58;;;;;;;12.43;7.78;;;13.60;99.90;;;;;;4934455;29;20161;-64
2022/09/25 12:45:32;;;;;;;15.38;7.88;;;13.60;99.90;;;;;;4947882;29;20043;-64
2022/09/25 12:48:27;;;;;;;14.07;8.15;;;13.60;99.90;;;;;;4934595;29;20043;-63
2022/09/25 12:51:14;;;;;;;10.52;8.27;;;13.60;99.90;;;;;;4934967;29;20047;-65
2022/09/25 12:53:49;;;;;;;11.20;6.57;;;13.60;99.90;;;;;;4929313;29;20043;-64
2022/09/25 12:56:26;;;;;;;6.68;5.65;;;13.80;99.90;;;;;;4916837;29;20047;-64
2022/09/25 12:59:20;;;;;;;9.38;5.97;;;13.80;99.90;;;;;;4908196;29;20448;-64
2022/09/25 13:02:10;;;;;;;7.72;5.47;;;13.70;99.90;;;;;;4930556;29;20047;-64
2022/09/25 13:04:57;;;;;;;7.85;5.40;;;13.80;99.90;;;;;;4930472;29;20448;-68
2022/09/25 13:07:49;;;;;;;8.98;6.60;;;13.80;99.90;;;;;;4942331;29;20124;-69
2022/09/25 13:10:29;;;;;;;11.55;7.05;;;13.80;99.90;;;;;;4946948;29;20055;-68
2022/09/25 13:12:59;;;;;;;8.93;6.65;;;13.70;99.90;;;;;;4933320;29;20054;-69